Time,TemperatureF,DewpointF,PressureIn,WindDirection,WindDirectionDegrees,WindSpeedMPH,WindSpeedGustMPH,Humidity,HourlyPrecipIn,Conditions,Clouds,dailyrainin,SolarRadiationWatts/m^2,SoftwareType,DateUTC
2013-02-13 00:01:00,39.0,14.0,-100.00,West,278,4.0,8.0,35,0.00,,,0.00,0.000000,,2013-02-13 08:01:00,
2013-02-13 00:11:00,39.0,14.0,-100.00,West,278,4.0,8.0,35,0.00,,,0.00,0.000000,,2013-02-13 08:11:00,
2013-02-13 00:21:00,39.0,14.0,-100.00,West,278,4.0,8.0,35,0.00,,,0.00,0.000000,,2013-02-13 08:21:00,
2013-02-13 00:43:00,38.0,13.0,-100.00,WNW,295,7.0,11.0,35,0.00,,,0.00,0.000000,,2013-02-13 08:43:00,
2013-02-13 00:52:00,38.0,13.0,-100.00,WNW,295,7.0,11.0,35,0.00,,,0.00,0.000000,,2013-02-13 08:52:00,
2013-02-13 01:01:00,38.0,13.0,-100.00,WNW,295,7.0,11.0,35,0.00,,,0.00,0.000000,,2013-02-13 09:01:00,
2013-02-13 01:11:00,38.0,13.0,-100.00,WNW,295,7.0,11.0,35,0.00,,,0.00,0.000000,,2013-02-13 09:11:00,
2013-02-13 01:21:00,38.0,13.0,-100.00,WNW,295,7.0,11.0,35,0.00,,,0.00,0.000000,,2013-02-13 09:21:00,
2013-02-13 01:42:00,39.0,14.0,-100.00,WNW,285,4.0,8.0,36,0.00,,,0.00,0.000000,,2013-02-13 09:42:00,
2013-02-13 01:52:00,39.0,14.0,-100.00,WNW,285,4.0,8.0,36,0.00,,,0.00,0.000000,,2013-02-13 09:52:00,
2013-02-13 02:01:00,39.0,14.0,-100.00,WNW,285,4.0,8.0,36,0.00,,,0.00,0.000000,,2013-02-13 10:01:00,
2013-02-13 02:42:00,39.0,15.0,-100.00,West,276,4.0,8.0,37,-99.99,,,0.00,0.000000,,2013-02-13 10:42:00,
2013-02-13 02:52:00,39.0,15.0,-100.00,West,276,4.0,8.0,37,-99.99,,,0.00,0.000000,,2013-02-13 10:52:00,
2013-02-13 03:01:00,39.0,15.0,-100.00,West,276,4.0,8.0,37,-99.99,,,0.00,0.000000,,2013-02-13 11:01:00,
2013-02-13 03:11:00,39.0,15.0,-100.00,West,276,4.0,8.0,37,-99.99,,,0.00,0.000000,,2013-02-13 11:11:00,
2013-02-13 03:22:00,39.0,15.0,-100.00,West,276,4.0,8.0,37,-99.99,,,0.00,0.000000,,2013-02-13 11:22:00,
2013-02-13 03:42:00,39.0,16.0,-100.00,NNW,331,1.0,6.0,39,0.00,,,0.00,0.000000,,2013-02-13 11:42:00,
2013-02-13 03:52:00,39.0,16.0,-100.00,NNW,331,1.0,6.0,39,0.00,,,0.00,0.000000,,2013-02-13 11:52:00,
2013-02-13 04:02:00,39.0,16.0,-100.00,NNW,331,1.0,6.0,39,0.00,,,0.00,0.000000,,2013-02-13 12:02:00,
2013-02-13 04:11:00,39.0,16.0,-100.00,NNW,331,1.0,6.0,39,0.00,,,0.00,0.000000,,2013-02-13 12:11:00,
2013-02-13 04:42:00,38.0,16.0,-100.00,West,277,4.0,6.0,41,-99.99,,,0.00,0.000000,,2013-02-13 12:42:00,
2013-02-13 04:52:00,38.0,16.0,-100.00,West,277,4.0,6.0,41,-99.99,,,0.00,0.000000,,2013-02-13 12:52:00,
2013-02-13 05:02:00,38.0,16.0,-100.00,West,277,4.0,6.0,41,-99.99,,,0.00,0.000000,,2013-02-13 13:02:00,
2013-02-13 05:21:00,38.0,16.0,-100.00,West,277,4.0,6.0,41,-99.99,,,0.00,0.000000,,2013-02-13 13:21:00,
2013-02-13 05:42:00,38.0,17.0,-100.00,SW,231,2.0,9.0,42,0.00,,,0.00,0.000000,,2013-02-13 13:42:00,
2013-02-13 05:52:00,38.0,17.0,-100.00,SW,231,2.0,9.0,42,0.00,,,0.00,0.000000,,2013-02-13 13:52:00,
2013-02-13 06:01:00,38.0,17.0,-100.00,SW,231,2.0,9.0,42,0.00,,,0.00,0.000000,,2013-02-13 14:01:00,
2013-02-13 06:11:00,38.0,17.0,-100.00,SW,231,2.0,9.0,42,0.00,,,0.00,0.000000,,2013-02-13 14:11:00,
2013-02-13 06:21:00,38.0,17.0,-100.00,SW,231,2.0,9.0,42,0.00,,,0.00,0.000000,,2013-02-13 14:21:00,
2013-02-13 06:42:00,37.0,16.0,-100.00,West,275,7.0,10.0,42,0.00,,,0.00,0.000000,,2013-02-13 14:42:00,
2013-02-13 06:52:00,37.0,16.0,-100.00,West,275,7.0,10.0,42,0.00,,,0.00,0.000000,,2013-02-13 14:52:00,
2013-02-13 07:01:00,37.0,16.0,-100.00,West,275,7.0,10.0,42,0.00,,,0.00,0.000000,,2013-02-13 15:01:00,
2013-02-13 07:11:00,37.0,16.0,-100.00,West,275,7.0,10.0,42,0.00,,,0.00,0.000000,,2013-02-13 15:11:00,
2013-02-13 07:21:00,37.0,16.0,-100.00,West,275,7.0,10.0,42,0.00,,,0.00,0.000000,,2013-02-13 15:21:00,
2013-02-13 07:42:00,40.0,18.0,-100.00,West,274,4.0,9.0,41,0.00,,,0.00,10.000000,,2013-02-13 15:42:00,
2013-02-13 07:52:00,40.0,18.0,-100.00,West,274,4.0,9.0,41,0.00,,,0.00,10.000000,,2013-02-13 15:52:00,
2013-02-13 08:01:00,40.0,18.0,-100.00,West,274,4.0,9.0,41,0.00,,,0.00,10.000000,,2013-02-13 16:01:00,
2013-02-13 08:42:00,46.0,19.0,-100.00,WSW,254,4.0,5.0,34,-99.99,,,0.00,191.000000,,2013-02-13 16:42:00,
2013-02-13 08:52:00,46.0,19.0,-100.00,WSW,254,4.0,5.0,34,-99.99,,,0.00,191.000000,,2013-02-13 16:52:00,
2013-02-13 09:01:00,46.0,19.0,-100.00,WSW,254,4.0,5.0,34,-99.99,,,0.00,191.000000,,2013-02-13 17:01:00,
2013-02-13 09:42:00,50.0,21.0,-100.00,SE,134,5.0,9.0,31,-99.99,,,0.00,444.000000,,2013-02-13 17:42:00,
2013-02-13 09:52:00,50.0,21.0,-100.00,SE,134,5.0,9.0,31,-99.99,,,0.00,444.000000,,2013-02-13 17:52:00,
2013-02-13 10:01:00,50.0,21.0,-100.00,SE,134,5.0,9.0,31,-99.99,,,0.00,444.000000,,2013-02-13 18:01:00,
2013-02-13 10:42:00,53.0,22.0,-100.00,SE,143,8.0,16.0,30,-99.99,,,-99.99,666.000000,,2013-02-13 18:42:00,
2013-02-13 10:52:00,53.0,22.0,-100.00,SE,143,8.0,16.0,30,-99.99,,,-99.99,666.000000,,2013-02-13 18:52:00,
2013-02-13 11:01:00,53.0,22.0,-100.00,SE,143,8.0,16.0,30,-99.99,,,-99.99,666.000000,,2013-02-13 19:01:00,
2013-02-13 11:42:00,55.0,23.0,-100.00,SE,136,10.0,18.0,29,0.00,,,0.00,817.000000,,2013-02-13 19:42:00,
2013-02-13 11:52:00,55.0,23.0,-100.00,SE,136,10.0,18.0,29,0.00,,,0.00,817.000000,,2013-02-13 19:52:00,
2013-02-13 12:02:00,55.0,23.0,-100.00,SE,136,10.0,18.0,29,0.00,,,0.00,817.000000,,2013-02-13 20:02:00,
2013-02-13 12:21:00,55.0,23.0,-100.00,SE,136,10.0,18.0,29,0.00,,,0.00,817.000000,,2013-02-13 20:21:00,
2013-02-13 12:42:00,56.0,25.0,-100.00,SE,139,9.0,21.0,30,0.00,,,0.00,890.000000,,2013-02-13 20:42:00,
2013-02-13 12:52:00,56.0,25.0,-100.00,SE,139,9.0,21.0,30,0.00,,,0.00,890.000000,,2013-02-13 20:52:00,
2013-02-13 13:01:00,56.0,25.0,-100.00,SE,139,9.0,21.0,30,0.00,,,0.00,890.000000,,2013-02-13 21:01:00,
2013-02-13 13:11:00,56.0,25.0,-100.00,SE,139,9.0,21.0,30,0.00,,,0.00,890.000000,,2013-02-13 21:11:00,
2013-02-13 13:21:00,56.0,25.0,-100.00,SE,139,9.0,21.0,30,0.00,,,0.00,890.000000,,2013-02-13 21:21:00,
2013-02-13 13:52:00,56.0,27.0,-100.00,ESE,109,6.0,20.0,32,0.00,,,0.00,882.000000,,2013-02-13 21:52:00,
2013-02-13 14:02:00,56.0,27.0,-100.00,ESE,109,6.0,20.0,32,0.00,,,0.00,882.000000,,2013-02-13 22:02:00,
2013-02-13 14:11:00,56.0,27.0,-100.00,ESE,109,6.0,20.0,32,0.00,,,0.00,882.000000,,2013-02-13 22:11:00,
2013-02-13 14:21:00,56.0,27.0,-100.00,ESE,109,6.0,20.0,32,0.00,,,0.00,882.000000,,2013-02-13 22:21:00,
2013-02-13 14:42:00,56.0,27.0,-100.00,SSE,153,7.0,16.0,33,0.00,,,0.00,654.000000,,2013-02-13 22:42:00,
2013-02-13 14:52:00,56.0,27.0,-100.00,SSE,153,7.0,16.0,33,0.00,,,0.00,654.000000,,2013-02-13 22:52:00,
2013-02-13 15:01:00,56.0,27.0,-100.00,SSE,153,7.0,16.0,33,0.00,,,0.00,654.000000,,2013-02-13 23:01:00,
2013-02-13 15:11:00,56.0,27.0,-100.00,SSE,153,7.0,16.0,33,0.00,,,0.00,654.000000,,2013-02-13 23:11:00,
2013-02-13 15:21:00,56.0,27.0,-100.00,SSE,153,7.0,16.0,33,0.00,,,0.00,654.000000,,2013-02-13 23:21:00,
2013-02-13 15:42:00,54.0,20.0,-100.00,East,99,9.0,21.0,26,0.00,,,0.00,640.000000,,2013-02-13 23:42:00,
2013-02-13 15:52:00,54.0,20.0,-100.00,East,99,9.0,21.0,26,0.00,,,0.00,640.000000,,2013-02-13 23:52:00,
2013-02-13 16:01:00,54.0,20.0,-100.00,East,99,9.0,21.0,26,0.00,,,0.00,640.000000,,2013-02-14 00:01:00,
2013-02-13 16:11:00,54.0,20.0,-100.00,East,99,9.0,21.0,26,0.00,,,0.00,640.000000,,2013-02-14 00:11:00,
2013-02-13 16:21:00,54.0,20.0,-100.00,East,99,9.0,21.0,26,0.00,,,0.00,640.000000,,2013-02-14 00:21:00,
2013-02-13 16:42:00,51.0,16.0,-100.00,East,82,11.0,19.0,24,0.00,,,0.00,305.000000,,2013-02-14 00:42:00,
2013-02-13 16:52:00,51.0,16.0,-100.00,East,82,11.0,19.0,24,0.00,,,0.00,305.000000,,2013-02-14 00:52:00,
2013-02-13 17:01:00,51.0,16.0,-100.00,East,82,11.0,19.0,24,0.00,,,0.00,305.000000,,2013-02-14 01:01:00,
2013-02-13 17:42:00,48.0,17.0,-100.00,ESE,105,5.0,20.0,29,0.00,,,0.00,79.000000,,2013-02-14 01:42:00,
2013-02-13 17:51:00,48.0,17.0,-100.00,ESE,105,5.0,20.0,29,0.00,,,0.00,79.000000,,2013-02-14 01:51:00,
2013-02-13 18:01:00,48.0,17.0,-100.00,ESE,105,5.0,20.0,29,0.00,,,0.00,79.000000,,2013-02-14 02:01:00,
2013-02-13 18:11:00,48.0,17.0,-100.00,ESE,105,5.0,20.0,29,0.00,,,0.00,79.000000,,2013-02-14 02:11:00,
2013-02-13 18:21:00,48.0,17.0,-100.00,ESE,105,5.0,20.0,29,0.00,,,0.00,79.000000,,2013-02-14 02:21:00,
2013-02-13 19:02:00,44.0,17.0,-100.00,NE,54,3.0,14.0,34,0.00,,,0.00,3.000000,,2013-02-14 03:02:00,
2013-02-13 19:11:00,44.0,17.0,-100.00,NE,54,3.0,14.0,34,0.00,,,0.00,3.000000,,2013-02-14 03:11:00,
2013-02-13 19:21:00,44.0,17.0,-100.00,NE,54,3.0,14.0,34,0.00,,,0.00,3.000000,,2013-02-14 03:21:00,
2013-02-13 19:42:00,43.0,17.0,-100.00,NW,321,4.0,16.0,35,0.00,,,0.00,0.000000,,2013-02-14 03:42:00,
2013-02-13 19:52:00,43.0,17.0,-100.00,NW,321,4.0,16.0,35,0.00,,,0.00,0.000000,,2013-02-14 03:52:00,
2013-02-13 20:01:00,43.0,17.0,-100.00,NW,321,4.0,16.0,35,0.00,,,0.00,0.000000,,2013-02-14 04:01:00,
2013-02-13 20:11:00,43.0,17.0,-100.00,NW,321,4.0,16.0,35,0.00,,,0.00,0.000000,,2013-02-14 04:11:00,
2013-02-13 20:21:00,43.0,17.0,-100.00,NW,321,4.0,16.0,35,0.00,,,0.00,0.000000,,2013-02-14 04:21:00,
2013-02-13 20:42:00,42.0,18.0,-100.00,SE,124,4.0,15.0,38,0.00,,,0.00,0.000000,,2013-02-14 04:42:00,
2013-02-13 20:52:00,42.0,18.0,-100.00,SE,124,4.0,15.0,38,0.00,,,0.00,0.000000,,2013-02-14 04:52:00,
2013-02-13 21:01:00,42.0,18.0,-100.00,SE,124,4.0,15.0,38,0.00,,,0.00,0.000000,,2013-02-14 05:01:00,
2013-02-13 21:11:00,42.0,18.0,-100.00,SE,124,4.0,15.0,38,0.00,,,0.00,0.000000,,2013-02-14 05:11:00,
2013-02-13 21:21:00,42.0,18.0,-100.00,SE,124,4.0,15.0,38,0.00,,,0.00,0.000000,,2013-02-14 05:21:00,
2013-02-13 21:42:00,40.0,17.0,-100.00,NNE,16,2.0,7.0,39,0.00,,,0.00,0.000000,,2013-02-14 05:42:00,
2013-02-13 21:52:00,40.0,17.0,-100.00,NNE,16,2.0,7.0,39,0.00,,,0.00,0.000000,,2013-02-14 05:52:00,
2013-02-13 22:01:00,40.0,17.0,-100.00,NNE,16,2.0,7.0,39,0.00,,,0.00,0.000000,,2013-02-14 06:01:00,
2013-02-13 22:11:00,40.0,17.0,-100.00,NNE,16,2.0,7.0,39,0.00,,,0.00,0.000000,,2013-02-14 06:11:00,
2013-02-13 22:21:00,40.0,17.0,-100.00,NNE,16,2.0,7.0,39,0.00,,,0.00,0.000000,,2013-02-14 06:21:00,
2013-02-13 22:42:00,42.0,17.0,-100.00,East,88,8.0,18.0,36,0.00,,,0.00,0.000000,,2013-02-14 06:42:00,
2013-02-13 22:52:00,42.0,17.0,-100.00,East,88,8.0,18.0,36,0.00,,,0.00,0.000000,,2013-02-14 06:52:00,
2013-02-13 23:01:00,42.0,17.0,-100.00,East,88,8.0,18.0,36,0.00,,,0.00,0.000000,,2013-02-14 07:01:00,
2013-02-13 23:11:00,42.0,17.0,-100.00,East,88,8.0,18.0,36,0.00,,,0.00,0.000000,,2013-02-14 07:11:00,
2013-02-13 23:21:00,42.0,17.0,-100.00,East,88,8.0,18.0,36,0.00,,,0.00,0.000000,,2013-02-14 07:21:00,
2013-02-13 23:42:00,41.0,15.0,-100.00,East,79,5.0,20.0,35,0.00,,,0.00,0.000000,,2013-02-14 07:42:00,
2013-02-13 23:52:00,41.0,15.0,-100.00,East,79,5.0,20.0,35,0.00,,,0.00,0.000000,,2013-02-14 07:52:00,